createdAt,value
2023-02-02T00:00:21.145Z,168.31
2023-02-02T00:01:21.152Z,171.89
2023-02-02T00:02:21.146Z,166.77
2023-02-02T00:03:21.089Z,164.99
2023-02-02T00:04:21.047Z,167.19
2023-02-02T00:05:21.049Z,171.80
2023-02-02T00:06:21.011Z,170.59
2023-02-02T00:07:20.963Z,168.78
2023-02-02T00:08:20.950Z,168.93
2023-02-02T00:09:20.924Z,169.06
2023-02-02T00:10:20.905Z,167.38
2023-02-02T00:11:20.877Z,168.99
2023-02-02T00:12:20.842Z,167.85
2023-02-02T00:13:20.822Z,168.84
2023-02-02T00:14:20.797Z,163.65
2023-02-02T00:15:20.789Z,164.96
2023-02-02T00:16:20.785Z,164.63
2023-02-02T00:17:20.731Z,167.30
2023-02-02T00:18:20.723Z,168.84
2023-02-02T00:19:20.677Z,167.93
2023-02-02T00:20:20.667Z,168.49
2023-02-02T00:21:20.638Z,164.15
2023-02-02T00:22:20.618Z,168.33
2023-02-02T00:23:20.596Z,167.49
2023-02-02T00:24:20.563Z,167.57
2023-02-02T00:25:20.548Z,164.97
2023-02-02T00:26:20.533Z,165.84
2023-02-02T00:27:20.489Z,167.35
2023-02-02T00:28:20.480Z,167.94
2023-02-02T00:29:20.452Z,166.36
2023-02-02T00:30:20.418Z,166.97
2023-02-02T00:31:20.442Z,166.74
2023-02-02T00:32:20.362Z,168.05
2023-02-02T00:33:20.337Z,168.85
2023-02-02T00:34:20.311Z,163.76
2023-02-02T00:35:20.287Z,165.89
2023-02-02T00:36:20.264Z,166.05
2023-02-02T00:37:20.259Z,160.30
2023-02-02T00:38:20.218Z,163.64
2023-02-02T00:39:20.186Z,166.27
2023-02-02T00:40:20.156Z,165.56
2023-02-02T00:41:20.137Z,165.85
2023-02-02T00:42:20.111Z,168.56
2023-02-02T00:43:20.098Z,167.84
2023-02-02T00:44:20.065Z,168.07
2023-02-02T00:45:20.047Z,171.06
2023-02-02T00:46:19.993Z,164.89
2023-02-02T00:47:19.967Z,165.59
2023-02-02T00:48:19.948Z,166.10
2023-02-02T00:49:19.922Z,167.98
2023-02-02T00:50:19.902Z,166.08
2023-02-02T00:51:19.878Z,164.20
2023-02-02T00:52:19.843Z,161.95
2023-02-02T00:53:19.819Z,164.01
2023-02-02T00:54:19.797Z,166.36
2023-02-02T00:55:19.801Z,167.56
2023-02-02T00:56:19.748Z,171.29
2023-02-02T00:57:19.726Z,171.75
2023-02-02T00:58:19.699Z,170.17
2023-02-02T00:59:19.683Z,167.84
2023-02-02T01:00:19.654Z,161.26
2023-02-02T01:01:19.657Z,166.59
2023-02-02T01:02:19.620Z,168.07
2023-02-02T01:03:19.591Z,170.84
2023-02-02T01:04:19.566Z,176.26
2023-02-02T01:05:19.532Z,169.50
2023-02-02T01:06:19.511Z,167.76
2023-02-02T01:07:19.474Z,169.64
2023-02-02T01:08:19.436Z,167.65
2023-02-02T01:09:19.426Z,172.06
2023-02-02T01:10:19.404Z,165.94
2023-02-02T01:11:19.348Z,164.52
2023-02-02T01:12:19.330Z,166.90
2023-02-02T01:13:19.306Z,168.61
2023-02-02T01:14:19.285Z,168.05
2023-02-02T01:15:19.257Z,166.80
2023-02-02T01:16:19.289Z,167.86
2023-02-02T01:17:19.201Z,167.89
2023-02-02T01:18:19.167Z,171.02
2023-02-02T01:19:19.148Z,170.52
2023-02-02T01:20:19.116Z,169.57
2023-02-02T01:21:19.089Z,167.34
2023-02-02T01:22:19.079Z,168.36
2023-02-02T01:23:19.057Z,171.71
2023-02-02T01:24:19.033Z,169.75
2023-02-02T01:25:18.994Z,170.97
2023-02-02T01:26:19.025Z,172.30
2023-02-02T01:27:18.940Z,170.61
2023-02-02T01:28:18.932Z,168.88
2023-02-02T01:29:18.897Z,171.10
2023-02-02T01:30:18.881Z,175.01
2023-02-02T01:31:18.942Z,172.82
2023-02-02T01:32:18.831Z,170.93
2023-02-02T01:33:18.818Z,168.67
2023-02-02T01:34:18.784Z,172.91
2023-02-02T01:35:18.761Z,168.77
2023-02-02T01:36:18.739Z,171.16
2023-02-02T01:37:18.742Z,171.43
2023-02-02T01:38:18.691Z,171.77
2023-02-02T01:39:18.672Z,170.89
2023-02-02T01:40:18.650Z,169.57
2023-02-02T01:41:18.614Z,172.85
2023-02-02T01:42:18.609Z,169.06
2023-02-02T01:43:18.575Z,172.98
2023-02-02T01:44:18.575Z,174.43
2023-02-02T01:45:18.522Z,173.69
2023-02-02T01:46:18.523Z,173.71
2023-02-02T01:47:18.479Z,175.47
2023-02-02T01:48:18.490Z,172.45
2023-02-02T01:49:18.427Z,171.15
2023-02-02T01:50:18.438Z,168.04
2023-02-02T01:51:18.392Z,169.02
2023-02-02T01:52:18.385Z,173.49
2023-02-02T01:53:18.349Z,173.74
2023-02-02T01:54:18.360Z,176.85
2023-02-02T01:55:18.321Z,173.77
2023-02-02T01:56:18.297Z,175.09
2023-02-02T01:57:18.275Z,171.69
2023-02-02T01:58:18.261Z,172.52
2023-02-02T01:59:18.239Z,168.15
2023-02-02T02:00:18.236Z,169.00
2023-02-02T02:01:18.313Z,172.42
2023-02-02T02:02:18.255Z,170.31
2023-02-02T02:03:18.163Z,172.89
2023-02-02T02:04:18.143Z,172.53
2023-02-02T02:05:18.124Z,175.44
2023-02-02T02:06:18.135Z,174.24
2023-02-02T02:07:18.091Z,172.71
2023-02-02T02:08:18.067Z,172.54
2023-02-02T02:09:18.064Z,172.22
2023-02-02T02:10:18.049Z,168.58
2023-02-02T02:11:17.998Z,171.33
2023-02-02T02:12:17.989Z,169.53
2023-02-02T02:13:17.969Z,172.59
2023-02-02T02:14:17.943Z,174.13
2023-02-02T02:15:17.924Z,175.01
2023-02-02T02:16:17.923Z,172.98
2023-02-02T02:17:17.887Z,176.72
2023-02-02T02:18:17.856Z,173.49
2023-02-02T02:19:17.831Z,173.49
2023-02-02T02:20:17.825Z,171.43
2023-02-02T02:21:17.793Z,171.79
2023-02-02T02:22:17.767Z,168.60
2023-02-02T02:23:17.742Z,170.01
2023-02-02T02:24:17.740Z,169.28
2023-02-02T02:25:17.711Z,170.96
2023-02-02T02:26:17.692Z,171.91
2023-02-02T02:27:17.665Z,174.09
2023-02-02T02:28:17.633Z,171.43
2023-02-02T02:29:17.648Z,172.86
2023-02-02T02:30:17.604Z,175.73
2023-02-02T02:31:17.681Z,173.36
2023-02-02T02:32:17.548Z,174.00
2023-02-02T02:33:17.514Z,173.41
2023-02-02T02:34:17.499Z,170.07
2023-02-02T02:35:17.476Z,171.32
2023-02-02T02:36:17.448Z,170.51
2023-02-02T02:37:17.452Z,170.42
2023-02-02T02:38:17.409Z,173.57
2023-02-02T02:39:17.406Z,170.03
2023-02-02T02:40:17.390Z,167.29
2023-02-02T02:41:17.373Z,168.13
2023-02-02T02:42:17.339Z,168.26
2023-02-02T02:43:17.310Z,170.54
2023-02-02T02:44:17.288Z,170.53
2023-02-02T02:45:17.281Z,168.00
2023-02-02T02:46:17.263Z,166.15
2023-02-02T02:47:17.203Z,169.13
2023-02-02T02:48:17.175Z,166.03
2023-02-02T02:49:17.152Z,168.84
2023-02-02T02:50:17.144Z,168.19
2023-02-02T02:51:17.109Z,163.84
2023-02-02T02:52:17.086Z,165.46
2023-02-02T02:53:17.065Z,166.20
2023-02-02T02:54:17.032Z,166.92
2023-02-02T02:55:17.032Z,168.84
2023-02-02T02:56:16.988Z,169.64
2023-02-02T02:57:16.964Z,167.40
2023-02-02T02:58:16.962Z,163.55
2023-02-02T02:59:16.929Z,165.71
2023-02-02T03:00:16.901Z,160.96
2023-02-02T03:01:16.954Z,164.07
2023-02-02T03:02:16.934Z,156.72
2023-02-02T03:03:16.835Z,164.16
2023-02-02T03:04:16.813Z,156.86
2023-02-02T03:05:16.804Z,157.11
2023-02-02T03:06:16.788Z,157.92
2023-02-02T03:07:16.752Z,158.77
2023-02-02T03:08:16.729Z,157.98
2023-02-02T03:09:16.704Z,163.23
2023-02-02T03:10:16.675Z,161.96
2023-02-02T03:11:16.681Z,160.72
2023-02-02T03:12:16.639Z,160.69
2023-02-02T03:13:16.623Z,154.57
2023-02-02T03:14:16.618Z,157.47
2023-02-02T03:15:16.588Z,161.10
2023-02-02T03:16:16.576Z,161.59
2023-02-02T03:17:16.560Z,162.48
2023-02-02T03:18:16.528Z,159.51
2023-02-02T03:19:16.514Z,160.30
2023-02-02T03:20:16.495Z,158.40
2023-02-02T03:21:16.493Z,160.15
2023-02-02T03:22:16.459Z,161.39
2023-02-02T03:23:16.436Z,147.03
2023-02-02T03:24:16.414Z,160.15
2023-02-02T03:25:16.415Z,161.36
2023-02-02T03:26:16.450Z,161.48
2023-02-02T03:27:16.358Z,155.06
2023-02-02T03:28:16.339Z,161.70
2023-02-02T03:29:16.307Z,158.20
2023-02-02T03:30:16.296Z,158.94
2023-02-02T03:31:16.294Z,158.13
2023-02-02T03:32:16.251Z,153.01
2023-02-02T03:33:16.231Z,157.40
2023-02-02T03:34:16.223Z,162.22
2023-02-02T03:35:16.200Z,164.19
2023-02-02T03:36:16.173Z,163.38
2023-02-02T03:37:16.152Z,159.04
2023-02-02T03:38:16.130Z,160.63
2023-02-02T03:39:16.116Z,156.97
2023-02-02T03:40:16.081Z,161.59
2023-02-02T03:41:16.072Z,160.16
2023-02-02T03:42:16.038Z,162.28
2023-02-02T03:43:16.024Z,161.45
2023-02-02T03:44:16.010Z,161.58
2023-02-02T03:45:15.985Z,161.46
2023-02-02T03:46:15.987Z,159.68
2023-02-02T03:47:15.943Z,161.94
2023-02-02T03:48:15.918Z,160.18
2023-02-02T03:49:15.902Z,158.43
2023-02-02T03:50:15.885Z,161.40
2023-02-02T03:51:15.859Z,155.64
2023-02-02T03:52:15.849Z,159.48
2023-02-02T03:53:15.821Z,160.40
2023-02-02T03:54:15.791Z,159.16
2023-02-02T03:55:15.792Z,164.14
2023-02-02T03:56:15.760Z,160.94
2023-02-02T03:57:15.743Z,162.42
2023-02-02T03:58:15.725Z,162.98
2023-02-02T03:59:15.711Z,161.59
2023-02-02T04:00:15.688Z,158.84
2023-02-02T04:01:15.656Z,161.54
2023-02-02T04:02:15.637Z,162.24
2023-02-02T04:03:15.637Z,157.77
2023-02-02T04:04:15.598Z,156.84
2023-02-02T04:05:15.586Z,160.50
2023-02-02T04:06:15.575Z,159.24
2023-02-02T04:07:15.554Z,161.84
2023-02-02T04:08:15.535Z,164.64
2023-02-02T04:09:15.529Z,159.16
2023-02-02T04:10:15.502Z,156.93
2023-02-02T04:11:15.489Z,160.58
2023-02-02T04:12:15.481Z,160.45
2023-02-02T04:13:15.452Z,164.39
2023-02-02T04:14:15.426Z,163.78
2023-02-02T04:15:15.416Z,164.57
2023-02-02T04:16:15.446Z,163.72
2023-02-02T04:17:15.378Z,162.62
2023-02-02T04:18:15.344Z,161.26
2023-02-02T04:19:15.325Z,160.49
2023-02-02T04:20:15.314Z,163.04
2023-02-02T04:21:15.309Z,162.90
2023-02-02T04:22:15.266Z,161.90
2023-02-02T04:23:15.248Z,159.94
2023-02-02T04:24:15.232Z,163.48
2023-02-02T04:25:15.204Z,161.06
2023-02-02T04:26:15.173Z,160.30
2023-02-02T04:27:15.166Z,168.68
2023-02-02T04:28:15.142Z,160.38
2023-02-02T04:29:15.113Z,160.84
2023-02-02T04:30:15.093Z,163.47
2023-02-02T04:31:15.111Z,166.12
2023-02-02T04:32:15.071Z,161.82
2023-02-02T04:33:15.038Z,162.12
2023-02-02T04:34:15.001Z,168.59
2023-02-02T04:35:14.977Z,163.05
2023-02-02T04:36:14.932Z,158.45
2023-02-02T04:37:14.934Z,161.09
2023-02-02T04:38:14.878Z,164.50
2023-02-02T04:39:14.893Z,164.89
2023-02-02T04:40:14.835Z,163.42
2023-02-02T04:41:14.809Z,167.30
2023-02-02T04:42:14.799Z,161.48
2023-02-02T04:43:14.775Z,164.79
2023-02-02T04:44:14.771Z,163.42
2023-02-02T04:45:14.731Z,163.18
2023-02-02T04:46:14.730Z,163.48
2023-02-02T04:47:14.678Z,162.27
2023-02-02T04:48:14.686Z,165.85
2023-02-02T04:49:14.640Z,162.81
2023-02-02T04:50:14.626Z,159.25
2023-02-02T04:51:14.608Z,161.93
2023-02-02T04:52:14.567Z,160.38
2023-02-02T04:53:14.552Z,162.95
2023-02-02T04:54:14.526Z,164.60
2023-02-02T04:55:14.518Z,161.09
2023-02-02T04:56:14.491Z,164.93
2023-02-02T04:57:14.486Z,159.17
2023-02-02T04:58:14.458Z,163.18
2023-02-02T04:59:14.437Z,165.17
2023-02-02T05:00:14.431Z,164.82
2023-02-02T05:01:14.458Z,165.18
2023-02-02T05:02:14.388Z,162.49
2023-02-02T05:03:14.368Z,157.10
2023-02-02T05:04:14.404Z,163.95
2023-02-02T05:05:14.348Z,165.52
2023-02-02T05:06:15.957Z,162.87
2023-02-02T05:07:14.307Z,165.10
2023-02-02T05:08:14.273Z,166.71
2023-02-02T05:09:14.262Z,164.89
2023-02-02T05:10:14.260Z,164.44
2023-02-02T05:11:14.214Z,164.65
2023-02-02T05:12:14.199Z,165.07
2023-02-02T05:13:14.170Z,165.28
2023-02-02T05:14:14.145Z,164.71
2023-02-02T05:15:14.147Z,164.60
2023-02-02T05:16:14.178Z,165.41
2023-02-02T05:17:14.105Z,168.65
2023-02-02T05:18:14.076Z,167.86
2023-02-02T05:19:14.265Z,171.96
2023-02-02T05:20:14.037Z,170.28
2023-02-02T05:21:14.013Z,173.93
2023-02-02T05:22:13.980Z,173.16
2023-02-02T05:23:13.948Z,171.52
2023-02-02T05:24:13.922Z,168.02
2023-02-02T05:25:13.890Z,167.15
2023-02-02T05:26:13.861Z,169.44
2023-02-02T05:27:13.844Z,165.89
2023-02-02T05:28:13.827Z,166.02
2023-02-02T05:29:13.786Z,166.43
2023-02-02T05:30:13.750Z,167.16
2023-02-02T05:31:13.800Z,165.87
2023-02-02T05:32:13.692Z,165.74
2023-02-02T05:33:13.687Z,166.17
2023-02-02T05:34:13.642Z,166.31
2023-02-02T05:35:13.609Z,165.78
2023-02-02T05:36:13.585Z,166.40
2023-02-02T05:37:13.552Z,160.83
2023-02-02T05:38:13.540Z,163.00
2023-02-02T05:39:13.490Z,166.91
2023-02-02T05:40:13.455Z,167.03
2023-02-02T05:41:13.432Z,167.26
2023-02-02T05:42:13.402Z,167.22
2023-02-02T05:43:13.385Z,163.36
2023-02-02T05:44:13.363Z,160.90
2023-02-02T05:45:13.344Z,162.48
2023-02-02T05:46:13.382Z,169.28
2023-02-02T05:47:13.299Z,168.06
2023-02-02T05:48:13.272Z,167.84
2023-02-02T05:49:13.255Z,168.70
2023-02-02T05:50:13.224Z,172.79
2023-02-02T05:51:13.204Z,171.68
2023-02-02T05:52:13.174Z,167.87
2023-02-02T05:53:13.149Z,168.90
2023-02-02T05:54:13.148Z,172.43
2023-02-02T05:55:13.099Z,171.27
2023-02-02T05:56:13.074Z,171.48
2023-02-02T05:57:13.039Z,172.04
2023-02-02T05:58:13.013Z,171.23
2023-02-02T05:59:12.994Z,171.38
2023-02-02T06:00:13.102Z,171.46
2023-02-02T06:01:12.940Z,170.59
2023-02-02T06:02:12.897Z,171.48
2023-02-02T06:03:13.111Z,171.67
2023-02-02T06:04:12.886Z,171.02
2023-02-02T06:23:12.362Z,193.98
2023-02-02T06:24:12.338Z,193.88
2023-02-02T06:25:12.308Z,196.52
2023-02-02T06:26:12.297Z,197.46
2023-02-02T06:27:12.266Z,199.82
2023-02-02T06:28:12.234Z,196.95
2023-02-02T06:29:12.208Z,200.48
2023-02-02T06:30:12.187Z,201.03
2023-02-02T06:31:12.246Z,204.40
2023-02-02T06:32:12.281Z,204.81
2023-02-02T06:33:12.140Z,205.62
2023-02-02T06:34:12.093Z,206.91
2023-02-02T06:36:12.086Z,216.89
2023-02-02T06:37:12.033Z,223.26
2023-02-02T06:38:12.015Z,219.33
2023-02-02T06:39:11.997Z,220.51
2023-02-02T06:40:11.966Z,218.87
2023-02-02T06:41:11.932Z,223.08
2023-02-02T06:42:20.713Z,223.99
2023-02-02T06:43:11.891Z,224.34
2023-02-02T06:44:11.866Z,225.14
2023-02-02T06:45:11.826Z,228.01
2023-02-02T06:46:11.842Z,232.53
2023-02-02T06:47:11.792Z,240.09
2023-02-02T06:48:11.777Z,250.00
2023-02-02T06:49:11.730Z,249.91
2023-02-02T06:50:11.687Z,249.04
2023-02-02T06:51:11.661Z,248.95
2023-02-02T06:52:11.637Z,248.61
2023-02-02T06:53:11.627Z,247.19
2023-02-02T06:54:11.592Z,245.03
2023-02-02T06:55:11.563Z,245.47
2023-02-02T06:56:11.531Z,249.74
2023-02-02T06:57:11.509Z,254.83
2023-02-02T06:58:11.483Z,262.06
2023-02-02T06:59:11.445Z,274.57
2023-02-02T07:00:11.433Z,246.62
2023-02-02T07:01:11.487Z,252.10
2023-02-02T07:02:11.407Z,246.88
2023-02-02T07:03:11.332Z,252.91
2023-02-02T07:04:11.315Z,263.77
2023-02-02T07:05:11.285Z,281.99
2023-02-02T07:06:11.252Z,305.51
2023-02-02T07:07:11.226Z,284.19
2023-02-02T07:08:11.217Z,256.81
2023-02-02T07:09:11.170Z,249.97
2023-02-02T07:11:13.389Z,248.75
2023-02-02T07:11:15.400Z,248.98
2023-02-02T07:12:11.098Z,249.06
2023-02-02T07:13:11.050Z,249.98
2023-02-02T07:14:11.020Z,250.75
2023-02-02T07:15:10.992Z,253.80
2023-02-02T07:16:11.050Z,256.30
2023-02-02T07:17:10.925Z,249.46
2023-02-02T07:18:10.899Z,245.92
2023-02-02T07:19:10.869Z,246.21
2023-02-02T07:20:10.833Z,248.59
2023-02-02T07:21:10.810Z,237.01
2023-02-02T07:22:10.780Z,206.74
2023-02-02T07:23:10.742Z,171.51
2023-02-02T07:24:10.736Z,157.64
2023-02-02T07:25:10.723Z,157.19
2023-02-02T07:26:10.652Z,147.32
2023-02-02T07:27:10.639Z,143.96
2023-02-02T07:28:10.671Z,136.97
2023-02-02T07:29:10.584Z,135.30
2023-02-02T07:30:10.604Z,135.56
2023-02-02T07:31:10.654Z,113.84
2023-02-02T07:32:10.513Z,106.55
2023-02-02T07:33:10.488Z,96.69
2023-02-02T07:34:10.471Z,67.16
2023-02-02T07:35:10.448Z,72.49
2023-02-02T07:36:10.425Z,71.03
2023-02-02T07:37:10.408Z,74.37
2023-02-02T07:38:10.386Z,78.42
2023-02-02T07:39:10.371Z,54.03
2023-02-02T07:40:10.349Z,35.40
2023-02-02T07:41:10.318Z,73.37
2023-02-02T07:42:10.302Z,81.86
2023-02-02T07:43:10.303Z,139.38
2023-02-02T07:44:10.454Z,148.84
2023-02-02T07:45:36.510Z,166.97
2023-02-02T07:46:11.324Z,167.17
2023-02-02T07:48:10.232Z,167.20
2023-02-02T07:50:10.127Z,33.98
2023-02-02T07:51:10.113Z,0.00
2023-02-02T07:52:10.157Z,0.00
2023-02-02T07:53:10.103Z,48.39
2023-02-02T07:54:10.085Z,74.78
2023-02-02T07:55:14.861Z,82.58
2023-02-02T07:56:11.074Z,83.14
2023-02-02T07:57:10.037Z,87.42
2023-02-02T07:58:10.024Z,96.83
2023-02-02T07:59:09.992Z,113.36
2023-02-02T08:00:09.959Z,148.73
2023-02-02T08:01:09.962Z,147.43
2023-02-02T08:02:09.917Z,162.65
2023-02-02T08:03:09.988Z,166.50
2023-02-02T08:04:09.971Z,166.57
2023-02-02T08:05:09.886Z,166.37
2023-02-02T08:06:09.865Z,167.76
2023-02-02T08:07:09.850Z,169.68
2023-02-02T08:08:09.832Z,171.90
2023-02-02T08:09:09.789Z,152.69
2023-02-02T08:10:09.797Z,155.81
2023-02-02T08:11:09.736Z,127.87
2023-02-02T08:12:09.706Z,143.62
2023-02-02T08:13:09.687Z,147.72
2023-02-02T08:14:09.673Z,154.66
2023-02-02T08:15:10.665Z,158.84
2023-02-02T08:16:09.683Z,156.01
2023-02-02T08:17:09.593Z,153.84
2023-02-02T08:18:09.615Z,151.68
2023-02-02T08:19:09.546Z,152.59
2023-02-02T08:20:09.542Z,141.58
2023-02-02T08:21:09.540Z,121.42
2023-02-02T08:22:09.495Z,127.96
2023-02-02T08:23:09.479Z,136.65
2023-02-02T08:24:09.462Z,141.22
2023-02-02T08:25:09.444Z,147.98
2023-02-02T08:26:09.436Z,134.71
2023-02-02T08:27:09.422Z,143.34
2023-02-02T08:28:09.398Z,102.04
2023-02-02T08:29:09.383Z,118.58
2023-02-02T08:30:09.373Z,116.87
2023-02-02T08:31:09.422Z,117.41
2023-02-02T08:32:09.354Z,118.48
2023-02-02T08:33:09.327Z,122.11
2023-02-02T08:34:09.330Z,104.36
2023-02-02T08:35:09.288Z,113.93
2023-02-02T08:36:09.318Z,88.97
2023-02-02T08:37:09.456Z,79.72
2023-02-02T08:38:09.259Z,100.02
2023-02-02T08:39:09.331Z,110.39
2023-02-02T08:40:09.282Z,124.56
2023-02-02T08:41:09.232Z,139.59
2023-02-02T08:42:09.203Z,145.81
2023-02-02T08:43:10.649Z,155.72
2023-02-02T08:44:11.297Z,157.51
2023-02-02T08:46:02.882Z,156.69
2023-02-02T08:46:10.236Z,156.88
2023-02-02T08:47:09.227Z,157.43
2023-02-02T08:48:12.644Z,159.10
2023-02-02T08:49:09.122Z,156.99
2023-02-02T08:50:09.081Z,157.83
2023-02-02T08:51:09.074Z,157.20
2023-02-02T08:52:09.043Z,159.09
2023-02-02T08:53:09.011Z,162.42
2023-02-02T08:54:09.023Z,167.13
2023-02-02T08:55:08.975Z,175.29
2023-02-02T08:56:08.970Z,172.70
2023-02-02T08:57:08.948Z,173.04
2023-02-02T08:58:08.919Z,171.29
2023-02-02T08:59:08.914Z,172.39
2023-02-02T09:00:08.886Z,173.72
2023-02-02T09:01:08.915Z,166.80
2023-02-02T09:02:08.835Z,163.11
2023-02-02T09:03:08.795Z,168.00
2023-02-02T09:04:08.810Z,170.25
2023-02-02T09:05:08.740Z,170.81
2023-02-02T09:06:08.731Z,173.11
2023-02-02T09:07:08.698Z,176.05
2023-02-02T09:08:08.679Z,176.08
2023-02-02T09:09:08.656Z,175.64
2023-02-02T09:10:08.630Z,167.95
2023-02-02T09:11:08.609Z,172.59
2023-02-02T09:12:08.597Z,170.09
2023-02-02T09:13:08.568Z,168.92
2023-02-02T09:14:08.553Z,169.14
2023-02-02T09:15:08.529Z,169.44
2023-02-02T09:16:08.591Z,169.97
2023-02-02T09:17:08.500Z,168.22
2023-02-02T09:18:08.471Z,168.56
2023-02-02T09:19:08.432Z,170.54
2023-02-02T09:20:08.440Z,166.42
2023-02-02T09:21:08.401Z,164.31
2023-02-02T09:22:08.423Z,166.60
2023-02-02T09:23:08.370Z,169.30
2023-02-02T09:24:08.345Z,172.74
2023-02-02T09:25:08.313Z,167.99
2023-02-02T09:26:08.356Z,166.21
2023-02-02T09:27:08.277Z,163.77
2023-02-02T09:28:08.254Z,167.33
2023-02-02T09:29:08.247Z,159.50
2023-02-02T09:30:08.255Z,159.35
2023-02-02T09:31:08.277Z,159.64
2023-02-02T09:32:08.495Z,162.00
2023-02-02T09:33:08.159Z,169.26
2023-02-02T09:34:08.130Z,180.23
2023-02-02T09:35:08.130Z,196.28
2023-02-02T09:36:08.088Z,201.92
2023-02-02T09:37:08.093Z,206.08
2023-02-02T09:38:08.059Z,209.24
2023-02-02T09:39:08.025Z,209.18
2023-02-02T09:40:08.008Z,212.78
2023-02-02T09:41:07.985Z,211.89
2023-02-02T09:42:08.009Z,212.18
2023-02-02T09:43:07.928Z,214.22
2023-02-02T09:44:07.908Z,218.37
2023-02-02T09:45:07.886Z,218.20
2023-02-02T09:46:07.946Z,218.97
2023-02-02T09:47:07.844Z,220.82
2023-02-02T09:48:07.817Z,218.59
2023-02-02T09:49:07.827Z,217.80
2023-02-02T09:50:07.768Z,217.84
2023-02-02T09:51:07.748Z,208.43
2023-02-02T09:52:07.724Z,218.54
2023-02-02T09:53:08.067Z,196.03
2023-02-02T09:54:07.652Z,202.53
2023-02-02T09:55:07.630Z,208.26
2023-02-02T09:56:07.592Z,207.94
2023-02-02T09:57:07.567Z,207.86
2023-02-02T09:58:07.575Z,210.11
2023-02-02T09:59:19.415Z,213.08
2023-02-02T10:00:08.541Z,213.35
2023-02-02T10:01:07.517Z,213.67
2023-02-02T10:02:07.422Z,216.44
2023-02-02T10:03:07.412Z,219.56
2023-02-02T10:04:07.431Z,227.69
2023-02-02T10:05:08.318Z,230.74
2023-02-02T10:06:07.319Z,235.10
2023-02-02T10:07:07.289Z,234.12
2023-02-02T10:08:07.265Z,235.97
2023-02-02T10:09:07.229Z,237.86
2023-02-02T10:10:07.197Z,239.83
2023-02-02T10:11:07.157Z,243.18
2023-02-02T10:12:07.129Z,242.69
2023-02-02T10:13:07.122Z,244.79
2023-02-02T10:14:07.097Z,245.59
2023-02-02T10:15:07.056Z,248.28
2023-02-02T10:16:07.060Z,247.49
2023-02-02T10:17:06.991Z,247.85
2023-02-02T10:18:06.959Z,249.66
2023-02-02T10:19:06.927Z,249.87
2023-02-02T10:20:06.893Z,250.44
2023-02-02T10:21:06.997Z,251.80
2023-02-02T10:22:06.833Z,253.22
2023-02-02T10:23:06.794Z,254.33
2023-02-02T10:24:06.771Z,249.38
2023-02-02T10:25:06.729Z,248.79
2023-02-02T10:26:06.697Z,247.89
2023-02-02T10:27:06.664Z,248.14
2023-02-02T10:28:06.639Z,249.50
2023-02-02T10:29:06.611Z,249.67
2023-02-02T10:30:06.594Z,250.17
2023-02-02T10:31:06.642Z,250.10
2023-02-02T10:32:06.617Z,251.75
2023-02-02T10:33:06.488Z,255.04
2023-02-02T10:34:06.438Z,249.41
2023-02-02T10:35:13.438Z,248.92
2023-02-02T10:36:07.379Z,249.17
2023-02-02T10:37:06.338Z,249.49
2023-02-02T10:38:07.455Z,251.70
2023-02-02T10:39:06.277Z,266.22
2023-02-02T10:40:06.337Z,280.07
2023-02-02T10:41:06.194Z,256.38
2023-02-02T10:42:06.191Z,250.93
2023-02-02T10:43:06.148Z,249.15
2023-02-02T10:44:06.126Z,245.23
2023-02-02T10:45:06.055Z,246.22
2023-02-02T10:46:06.046Z,246.11
2023-02-02T10:47:05.983Z,243.12
2023-02-02T10:48:05.930Z,240.47
2023-02-02T10:49:05.923Z,239.75
2023-02-02T10:50:05.877Z,238.85
2023-02-02T10:51:05.861Z,238.52
2023-02-02T10:52:05.789Z,236.40
2023-02-02T10:53:05.762Z,234.87
2023-02-02T10:54:05.726Z,233.37
2023-02-02T10:55:05.695Z,231.96
2023-02-02T10:56:05.660Z,230.14
2023-02-02T10:57:05.636Z,228.39
2023-02-02T10:58:05.666Z,225.50
2023-02-02T10:59:05.572Z,222.58
2023-02-02T11:00:05.536Z,222.65
2023-02-02T11:01:05.488Z,220.49
2023-02-02T11:02:19.948Z,218.88
2023-02-02T11:03:06.463Z,218.96
2023-02-02T11:04:05.386Z,217.53
2023-02-02T11:05:05.344Z,218.88
2023-02-02T11:06:05.310Z,213.61
2023-02-02T11:07:05.280Z,210.76
2023-02-02T11:08:05.228Z,212.88
2023-02-02T11:09:05.199Z,209.07
2023-02-02T11:10:05.164Z,206.17
2023-02-02T11:11:05.137Z,202.95
2023-02-02T11:12:05.114Z,201.54
2023-02-02T11:13:05.101Z,200.16
2023-02-02T11:14:05.074Z,199.16
2023-02-02T11:15:05.149Z,197.22
2023-02-02T11:16:05.895Z,196.46
2023-02-02T11:17:04.950Z,191.37
2023-02-02T11:18:04.943Z,190.63
2023-02-02T11:19:04.916Z,190.96
2023-02-02T11:20:04.867Z,190.21
2023-02-02T11:21:04.847Z,187.20
2023-02-02T11:22:04.805Z,185.44
2023-02-02T11:23:04.783Z,185.48
2023-02-02T11:24:04.752Z,183.55
2023-02-02T11:25:04.723Z,178.71
2023-02-02T11:26:04.689Z,177.49
2023-02-02T11:27:04.698Z,178.40
2023-02-02T11:28:04.645Z,176.71
2023-02-02T11:29:04.616Z,176.29
2023-02-02T11:30:04.579Z,177.79
2023-02-02T11:31:04.643Z,177.39
2023-02-02T11:32:04.555Z,176.92
2023-02-02T11:33:04.497Z,193.61
2023-02-02T11:34:04.485Z,221.90
2023-02-02T11:35:04.458Z,227.59
2023-02-02T11:36:04.424Z,226.60
2023-02-02T11:37:04.392Z,218.45
2023-02-02T11:38:04.363Z,220.32
2023-02-02T11:39:04.334Z,220.30
2023-02-02T11:40:04.336Z,223.29
2023-02-02T11:41:04.339Z,221.37
2023-02-02T11:42:04.264Z,219.79
2023-02-02T11:43:04.269Z,217.07
2023-02-02T11:44:04.190Z,217.13
2023-02-02T11:45:04.161Z,217.14
2023-02-02T11:46:04.298Z,216.68
2023-02-02T11:47:04.115Z,214.11
2023-02-02T11:48:04.065Z,214.81
2023-02-02T11:49:04.038Z,214.89
2023-02-02T11:50:04.039Z,218.53
2023-02-02T11:51:04.069Z,222.51
2023-02-02T11:52:03.949Z,224.24
2023-02-02T12:08:03.449Z,218.48
2023-02-02T12:10:03.426Z,217.88
2023-02-02T12:11:03.370Z,216.00
2023-02-02T12:12:03.352Z,216.44
2023-02-02T12:13:03.338Z,215.42
2023-02-02T12:14:03.295Z,215.51
2023-02-02T12:15:03.267Z,215.66
2023-02-02T12:16:03.231Z,215.54
2023-02-02T12:17:03.192Z,215.63
2023-02-02T12:18:03.161Z,215.64
2023-02-02T12:19:03.150Z,214.40
2023-02-02T12:20:03.097Z,214.00
2023-02-02T12:21:05.963Z,214.14
2023-02-02T12:22:03.029Z,214.21
2023-02-02T12:23:02.997Z,213.94
2023-02-02T12:24:02.960Z,212.98
2023-02-02T12:25:02.931Z,213.39
2023-02-02T12:26:02.901Z,211.04
2023-02-02T12:27:02.886Z,212.58
2023-02-02T13:07:01.685Z,195.26
2023-02-02T13:08:01.658Z,195.61
2023-02-02T13:09:01.649Z,193.65
2023-02-02T13:10:01.607Z,193.81
2023-02-02T13:11:01.605Z,193.73
2023-02-02T13:12:01.562Z,193.97
2023-02-02T13:13:01.554Z,193.90
2023-02-02T13:14:01.526Z,193.06
2023-02-02T13:15:01.484Z,193.03
2023-02-02T13:16:01.454Z,193.96
2023-02-02T13:17:01.497Z,190.61
2023-02-02T13:18:01.412Z,190.80
2023-02-02T13:19:01.349Z,190.22
2023-02-02T13:20:01.322Z,189.83
2023-02-02T13:21:01.290Z,189.57
2023-02-02T13:22:01.267Z,189.07
2023-02-02T13:23:01.235Z,188.36
2023-02-02T13:24:01.206Z,187.97
2023-02-02T13:25:01.451Z,187.87
2023-02-02T13:26:01.251Z,188.70
2023-02-02T13:27:01.327Z,188.33
2023-02-02T13:28:01.109Z,186.35
2023-02-02T13:29:01.054Z,186.23
2023-02-02T13:30:01.047Z,186.61
2023-02-02T13:31:01.141Z,185.69
2023-02-02T13:32:00.982Z,185.68
2023-02-02T13:33:00.951Z,185.75
2023-02-02T13:34:00.896Z,184.35
2023-02-02T13:35:00.866Z,184.24
2023-02-02T13:36:00.861Z,184.63
2023-02-02T13:37:00.815Z,184.79
2023-02-02T13:38:00.791Z,183.95
2023-02-02T13:39:00.773Z,182.86
2023-02-02T13:40:00.745Z,181.92
2023-02-02T13:41:00.733Z,182.43
2023-02-02T13:42:00.685Z,183.31
2023-02-02T13:43:00.653Z,182.00
2023-02-02T13:44:00.624Z,180.59
2023-02-02T13:45:00.638Z,181.00